Yale, Canada
Current Conditions -  °F | °C
As of 10:00 PM on Wednesday 28 Jan 2015 (Local Time) from CYHE Reporting Station
Clear Clear  
Wind Chill: 33°   Ceiling: Unl
Heat Index: 37°   Visibility: 9mi
Dew Point: 36°   Wind: 6mph
Humidity: 93%   Direction: 60°ENE
Pressure: 30.44"   Gusts: NA
Location:  49.56°N, 121.43°W
Report Text: CYHE 290600Z AUTO 06005KT 9SM CLR 03/02 A3044 RMK SLP308
Loading
Personal Weather Stations






























Interactive Weather Map New forecast layout! Learn more

10-Day Weather Forecast

Advertisements
Track Severe Weather on mobile